sensor_id;sensor_type;location;lat;lon;timestamp;temperature;humidity
55083;DHT22;40978;52.850;6.506;2023-07-28T00:00:30;17.70;99.90
55083;DHT22;40978;52.850;6.506;2023-07-28T00:02:55;17.80;99.90
55083;DHT22;40978;52.850;6.506;2023-07-28T00:05:21;17.70;99.90
55083;DHT22;40978;52.850;6.506;2023-07-28T00:07:47;17.80;99.90
55083;DHT22;40978;52.850;6.506;2023-07-28T00:10:12;17.70;99.90
55083;DHT22;40978;52.850;6.506;2023-07-28T00:12:38;17.80;99.90
55083;DHT22;40978;52.850;6.506;2023-07-28T00:15:04;17.70;99.90
55083;DHT22;40978;52.850;6.506;2023-07-28T00:17:30;17.70;99.90
55083;DHT22;40978;52.850;6.506;2023-07-28T00:19:56;17.70;99.90
55083;DHT22;40978;52.850;6.506;2023-07-28T00:22:22;17.70;99.90
55083;DHT22;40978;52.850;6.506;2023-07-28T00:24:47;17.70;99.90
55083;DHT22;40978;52.850;6.506;2023-07-28T00:27:13;17.70;99.90
55083;DHT22;40978;52.850;6.506;2023-07-28T00:29:41;17.70;99.90
55083;DHT22;40978;52.850;6.506;2023-07-28T00:32:10;17.80;99.90
55083;DHT22;40978;52.850;6.506;2023-07-28T00:34:36;17.70;99.90
55083;DHT22;40978;52.850;6.506;2023-07-28T00:37:01;17.70;99.90
55083;DHT22;40978;52.850;6.506;2023-07-28T00:39:27;17.70;99.90
55083;DHT22;40978;52.850;6.506;2023-07-28T00:41:53;17.80;99.90
55083;DHT22;40978;52.850;6.506;2023-07-28T00:44:21;17.70;99.90
55083;DHT22;40978;52.850;6.506;2023-07-28T00:46:47;17.70;99.90
55083;DHT22;40978;52.850;6.506;2023-07-28T00:49:13;17.70;99.90
55083;DHT22;40978;52.850;6.506;2023-07-28T00:51:40;17.70;99.90
55083;DHT22;40978;52.850;6.506;2023-07-28T00:54:06;17.70;99.90
55083;DHT22;40978;52.850;6.506;2023-07-28T00:56:32;17.70;99.90
55083;DHT22;40978;52.850;6.506;2023-07-28T00:58:58;17.70;99.90
55083;DHT22;40978;52.850;6.506;2023-07-28T01:01:24;17.70;99.90
55083;DHT22;40978;52.850;6.506;2023-07-28T01:03:50;17.70;99.90
55083;DHT22;40978;52.850;6.506;2023-07-28T01:06:54;17.70;99.90
55083;DHT22;40978;52.850;6.506;2023-07-28T01:09:26;17.70;99.90
55083;DHT22;40978;52.850;6.506;2023-07-28T01:11:54;17.70;99.90
55083;DHT22;40978;52.850;6.506;2023-07-28T01:14:20;17.70;99.90
55083;DHT22;40978;52.850;6.506;2023-07-28T01:16:46;17.70;99.90
55083;DHT22;40978;52.850;6.506;2023-07-28T01:19:13;17.70;99.90
55083;DHT22;40978;52.850;6.506;2023-07-28T01:21:41;17.70;99.90
55083;DHT22;40978;52.850;6.506;2023-07-28T01:26:56;17.70;99.90
55083;DHT22;40978;52.850;6.506;2023-07-28T01:29:22;17.70;99.90
55083;DHT22;40978;52.850;6.506;2023-07-28T01:31:51;17.70;99.90
55083;DHT22;40978;52.850;6.506;2023-07-28T01:34:17;17.70;99.90
55083;DHT22;40978;52.850;6.506;2023-07-28T01:36:42;17.70;99.90
55083;DHT22;40978;52.850;6.506;2023-07-28T01:39:08;17.70;99.90
55083;DHT22;40978;52.850;6.506;2023-07-28T01:41:34;17.70;99.90
55083;DHT22;40978;52.850;6.506;2023-07-28T01:44:00;17.70;99.90
55083;DHT22;40978;52.850;6.506;2023-07-28T01:46:25;17.70;99.90
55083;DHT22;40978;52.850;6.506;2023-07-28T01:48:51;17.70;99.90
55083;DHT22;40978;52.850;6.506;2023-07-28T01:51:17;17.70;99.90
55083;DHT22;40978;52.850;6.506;2023-07-28T01:53:43;17.70;99.90
55083;DHT22;40978;52.850;6.506;2023-07-28T01:56:09;17.80;99.90
55083;DHT22;40978;52.850;6.506;2023-07-28T01:58:34;17.70;99.90
55083;DHT22;40978;52.850;6.506;2023-07-28T02:01:00;17.70;99.90
55083;DHT22;40978;52.850;6.506;2023-07-28T02:03:26;17.70;99.90
55083;DHT22;40978;52.850;6.506;2023-07-28T02:05:52;17.70;99.90
55083;DHT22;40978;52.850;6.506;2023-07-28T02:08:18;17.70;99.90
55083;DHT22;40978;52.850;6.506;2023-07-28T02:10:44;17.70;99.90
55083;DHT22;40978;52.850;6.506;2023-07-28T02:13:10;17.70;99.90
55083;DHT22;40978;52.850;6.506;2023-07-28T02:15:36;17.70;99.90
55083;DHT22;40978;52.850;6.506;2023-07-28T02:18:02;17.70;99.90
55083;DHT22;40978;52.850;6.506;2023-07-28T02:20:27;17.70;99.90
55083;DHT22;40978;52.850;6.506;2023-07-28T02:22:53;17.70;99.90
55083;DHT22;40978;52.850;6.506;2023-07-28T02:25:19;17.70;99.90
55083;DHT22;40978;52.850;6.506;2023-07-28T02:27:45;17.70;99.90
55083;DHT22;40978;52.850;6.506;2023-07-28T02:30:10;17.70;99.90
55083;DHT22;40978;52.850;6.506;2023-07-28T02:32:37;17.70;99.90
55083;DHT22;40978;52.850;6.506;2023-07-28T02:35:02;17.70;99.90
55083;DHT22;40978;52.850;6.506;2023-07-28T02:37:28;17.70;99.90
55083;DHT22;40978;52.850;6.506;2023-07-28T02:39:54;17.70;99.90
55083;DHT22;40978;52.850;6.506;2023-07-28T02:42:20;17.70;99.90
55083;DHT22;40978;52.850;6.506;2023-07-28T02:44:45;17.70;99.90
55083;DHT22;40978;52.850;6.506;2023-07-28T02:47:11;17.70;99.90
55083;DHT22;40978;52.850;6.506;2023-07-28T02:49:37;17.70;99.90
55083;DHT22;40978;52.850;6.506;2023-07-28T02:52:03;17.70;99.90
55083;DHT22;40978;52.850;6.506;2023-07-28T02:54:29;17.70;99.90
55083;DHT22;40978;52.850;6.506;2023-07-28T02:56:54;17.70;99.90
55083;DHT22;40978;52.850;6.506;2023-07-28T02:59:21;17.70;99.90
55083;DHT22;40978;52.850;6.506;2023-07-28T03:01:48;17.70;99.90
55083;DHT22;40978;52.850;6.506;2023-07-28T03:04:19;17.70;99.90
55083;DHT22;40978;52.850;6.506;2023-07-28T03:06:46;17.70;99.90
55083;DHT22;40978;52.850;6.506;2023-07-28T03:09:12;17.70;99.90
55083;DHT22;40978;52.850;6.506;2023-07-28T03:11:38;17.70;99.90
55083;DHT22;40978;52.850;6.506;2023-07-28T03:14:04;17.70;99.90
55083;DHT22;40978;52.850;6.506;2023-07-28T03:16:29;17.70;99.90
55083;DHT22;40978;52.850;6.506;2023-07-28T03:18:57;17.70;99.90
55083;DHT22;40978;52.850;6.506;2023-07-28T03:21:23;17.70;99.90
55083;DHT22;40978;52.850;6.506;2023-07-28T03:23:49;17.70;99.90
55083;DHT22;40978;52.850;6.506;2023-07-28T03:26:14;17.70;99.90
55083;DHT22;40978;52.850;6.506;2023-07-28T03:28:40;17.70;99.90
55083;DHT22;40978;52.850;6.506;2023-07-28T03:31:08;17.70;99.90
55083;DHT22;40978;52.850;6.506;2023-07-28T03:33:34;17.70;99.90
55083;DHT22;40978;52.850;6.506;2023-07-28T03:36:00;17.70;99.90
55083;DHT22;40978;52.850;6.506;2023-07-28T03:38:26;17.70;99.90
55083;DHT22;40978;52.850;6.506;2023-07-28T03:40:51;17.70;99.90
55083;DHT22;40978;52.850;6.506;2023-07-28T03:43:17;17.70;99.90
55083;DHT22;40978;52.850;6.506;2023-07-28T03:45:43;17.70;99.90
55083;DHT22;40978;52.850;6.506;2023-07-28T03:48:09;17.80;99.90
55083;DHT22;40978;52.850;6.506;2023-07-28T03:50:34;17.80;99.90
55083;DHT22;40978;52.850;6.506;2023-07-28T03:53:00;17.80;99.90
55083;DHT22;40978;52.850;6.506;2023-07-28T03:55:26;17.80;99.90
55083;DHT22;40978;52.850;6.506;2023-07-28T03:57:51;17.80;99.90
55083;DHT22;40978;52.850;6.506;2023-07-28T04:00:17;17.80;99.90
55083;DHT22;40978;52.850;6.506;2023-07-28T04:02:43;17.80;99.90
55083;DHT22;40978;52.850;6.506;2023-07-28T04:05:09;17.80;99.90
55083;DHT22;40978;52.850;6.506;2023-07-28T04:07:35;17.80;99.90
55083;DHT22;40978;52.850;6.506;2023-07-28T04:10:00;17.80;99.90
55083;DHT22;40978;52.850;6.506;2023-07-28T04:12:26;17.80;99.90
55083;DHT22;40978;52.850;6.506;2023-07-28T04:14:52;17.80;99.90
55083;DHT22;40978;52.850;6.506;2023-07-28T04:17:20;17.80;99.90
55083;DHT22;40978;52.850;6.506;2023-07-28T04:19:46;17.80;99.90
55083;DHT22;40978;52.850;6.506;2023-07-28T04:22:12;17.80;99.90
55083;DHT22;40978;52.850;6.506;2023-07-28T04:24:38;17.80;99.90
55083;DHT22;40978;52.850;6.506;2023-07-28T04:27:04;17.80;99.90
55083;DHT22;40978;52.850;6.506;2023-07-28T04:29:30;17.80;99.90
55083;DHT22;40978;52.850;6.506;2023-07-28T04:31:56;17.80;99.90
55083;DHT22;40978;52.850;6.506;2023-07-28T04:34:22;17.80;99.90
55083;DHT22;40978;52.850;6.506;2023-07-28T04:36:48;17.80;99.90
55083;DHT22;40978;52.850;6.506;2023-07-28T04:39:13;17.90;99.90
55083;DHT22;40978;52.850;6.506;2023-07-28T04:41:39;17.80;99.90
55083;DHT22;40978;52.850;6.506;2023-07-28T04:44:05;17.80;99.90
55083;DHT22;40978;52.850;6.506;2023-07-28T04:46:30;17.90;99.90
55083;DHT22;40978;52.850;6.506;2023-07-28T04:48:56;17.90;99.90
55083;DHT22;40978;52.850;6.506;2023-07-28T04:51:22;17.80;99.90
55083;DHT22;40978;52.850;6.506;2023-07-28T04:53:48;17.90;99.90
55083;DHT22;40978;52.850;6.506;2023-07-28T04:56:14;17.90;99.90
55083;DHT22;40978;52.850;6.506;2023-07-28T04:58:47;17.80;99.90
55083;DHT22;40978;52.850;6.506;2023-07-28T05:01:12;17.80;99.90
55083;DHT22;40978;52.850;6.506;2023-07-28T05:03:38;17.90;99.90
55083;DHT22;40978;52.850;6.506;2023-07-28T05:06:04;17.90;99.90
55083;DHT22;40978;52.850;6.506;2023-07-28T05:08:30;17.90;99.90
55083;DHT22;40978;52.850;6.506;2023-07-28T05:10:56;17.90;99.90
55083;DHT22;40978;52.850;6.506;2023-07-28T05:13:22;17.90;99.90
55083;DHT22;40978;52.850;6.506;2023-07-28T05:15:48;17.90;99.90
55083;DHT22;40978;52.850;6.506;2023-07-28T05:18:14;17.90;99.90
55083;DHT22;40978;52.850;6.506;2023-07-28T05:20:40;17.90;99.90
55083;DHT22;40978;52.850;6.506;2023-07-28T05:23:05;18.00;99.90
55083;DHT22;40978;52.850;6.506;2023-07-28T05:25:31;18.00;99.90
55083;DHT22;40978;52.850;6.506;2023-07-28T05:27:57;18.00;99.90
55083;DHT22;40978;52.850;6.506;2023-07-28T05:30:23;17.90;99.90
55083;DHT22;40978;52.850;6.506;2023-07-28T05:32:48;18.00;99.90
55083;DHT22;40978;52.850;6.506;2023-07-28T05:35:17;18.00;99.90
55083;DHT22;40978;52.850;6.506;2023-07-28T05:37:43;18.00;99.90
55083;DHT22;40978;52.850;6.506;2023-07-28T05:40:09;18.00;99.90
55083;DHT22;40978;52.850;6.506;2023-07-28T05:42:35;18.10;99.90
55083;DHT22;40978;52.850;6.506;2023-07-28T05:45:01;18.00;99.90
55083;DHT22;40978;52.850;6.506;2023-07-28T05:47:27;18.00;99.90
55083;DHT22;40978;52.850;6.506;2023-07-28T05:49:52;18.10;99.90
55083;DHT22;40978;52.850;6.506;2023-07-28T05:52:19;18.10;99.90
55083;DHT22;40978;52.850;6.506;2023-07-28T05:54:45;18.10;99.90
55083;DHT22;40978;52.850;6.506;2023-07-28T05:57:12;18.10;99.90
55083;DHT22;40978;52.850;6.506;2023-07-28T05:59:38;18.10;99.90
55083;DHT22;40978;52.850;6.506;2023-07-28T06:02:03;18.10;99.90
55083;DHT22;40978;52.850;6.506;2023-07-28T06:04:29;18.10;99.90
55083;DHT22;40978;52.850;6.506;2023-07-28T06:06:55;18.10;99.90
55083;DHT22;40978;52.850;6.506;2023-07-28T06:09:21;18.20;99.90
55083;DHT22;40978;52.850;6.506;2023-07-28T06:11:46;18.30;99.90
55083;DHT22;40978;52.850;6.506;2023-07-28T06:14:12;18.30;99.90
55083;DHT22;40978;52.850;6.506;2023-07-28T06:16:38;18.30;99.90
55083;DHT22;40978;52.850;6.506;2023-07-28T06:19:04;18.30;99.90
55083;DHT22;40978;52.850;6.506;2023-07-28T06:21:29;18.40;99.90
55083;DHT22;40978;52.850;6.506;2023-07-28T06:23:55;18.50;99.90
55083;DHT22;40978;52.850;6.506;2023-07-28T06:26:21;18.50;99.90
55083;DHT22;40978;52.850;6.506;2023-07-28T06:28:47;18.60;99.90
55083;DHT22;40978;52.850;6.506;2023-07-28T06:31:12;18.60;99.90
55083;DHT22;40978;52.850;6.506;2023-07-28T06:33:38;18.60;99.90
55083;DHT22;40978;52.850;6.506;2023-07-28T06:36:04;18.70;99.90
55083;DHT22;40978;52.850;6.506;2023-07-28T06:38:30;18.70;99.90
55083;DHT22;40978;52.850;6.506;2023-07-28T06:40:56;18.70;99.90
55083;DHT22;40978;52.850;6.506;2023-07-28T06:43:22;18.80;99.90
55083;DHT22;40978;52.850;6.506;2023-07-28T06:45:51;18.80;99.90
55083;DHT22;40978;52.850;6.506;2023-07-28T06:48:17;18.80;99.90
55083;DHT22;40978;52.850;6.506;2023-07-28T06:50:43;18.80;99.90
55083;DHT22;40978;52.850;6.506;2023-07-28T06:53:08;18.80;99.90
55083;DHT22;40978;52.850;6.506;2023-07-28T06:55:34;18.80;99.90
55083;DHT22;40978;52.850;6.506;2023-07-28T06:58:00;18.80;99.90
55083;DHT22;40978;52.850;6.506;2023-07-28T07:00:26;18.80;99.90
55083;DHT22;40978;52.850;6.506;2023-07-28T07:02:52;18.90;99.90
55083;DHT22;40978;52.850;6.506;2023-07-28T07:05:18;18.90;99.90
55083;DHT22;40978;52.850;6.506;2023-07-28T07:07:44;19.00;99.90
55083;DHT22;40978;52.850;6.506;2023-07-28T07:10:09;19.00;99.90
55083;DHT22;40978;52.850;6.506;2023-07-28T07:12:36;19.10;99.90
55083;DHT22;40978;52.850;6.506;2023-07-28T07:15:02;19.10;99.90
55083;DHT22;40978;52.850;6.506;2023-07-28T07:17:28;19.10;99.90
55083;DHT22;40978;52.850;6.506;2023-07-28T07:19:54;19.10;99.90
55083;DHT22;40978;52.850;6.506;2023-07-28T07:22:20;19.20;99.90
55083;DHT22;40978;52.850;6.506;2023-07-28T07:24:45;19.10;99.90
55083;DHT22;40978;52.850;6.506;2023-07-28T07:27:11;19.10;99.90
55083;DHT22;40978;52.850;6.506;2023-07-28T07:29:40;19.10;99.90
55083;DHT22;40978;52.850;6.506;2023-07-28T07:32:06;19.10;99.90
55083;DHT22;40978;52.850;6.506;2023-07-28T07:34:34;19.20;99.90
55083;DHT22;40978;52.850;6.506;2023-07-28T07:37:00;19.20;99.90
55083;DHT22;40978;52.850;6.506;2023-07-28T07:39:26;19.30;99.90
55083;DHT22;40978;52.850;6.506;2023-07-28T07:41:52;19.30;99.90
55083;DHT22;40978;52.850;6.506;2023-07-28T07:44:18;19.40;99.90
55083;DHT22;40978;52.850;6.506;2023-07-28T07:46:44;19.50;99.90
55083;DHT22;40978;52.850;6.506;2023-07-28T07:49:09;19.50;99.90
55083;DHT22;40978;52.850;6.506;2023-07-28T07:51:35;19.60;99.90
55083;DHT22;40978;52.850;6.506;2023-07-28T07:54:01;19.50;99.90
55083;DHT22;40978;52.850;6.506;2023-07-28T07:56:27;19.60;99.90
55083;DHT22;40978;52.850;6.506;2023-07-28T07:58:53;19.60;99.90
55083;DHT22;40978;52.850;6.506;2023-07-28T08:01:18;19.70;99.90
55083;DHT22;40978;52.850;6.506;2023-07-28T08:03:44;19.80;99.90
55083;DHT22;40978;52.850;6.506;2023-07-28T08:06:10;20.00;99.90
55083;DHT22;40978;52.850;6.506;2023-07-28T08:08:38;20.20;99.90
55083;DHT22;40978;52.850;6.506;2023-07-28T08:11:04;20.40;99.90
55083;DHT22;40978;52.850;6.506;2023-07-28T08:13:31;20.60;99.90
55083;DHT22;40978;52.850;6.506;2023-07-28T08:15:56;20.80;99.90
55083;DHT22;40978;52.850;6.506;2023-07-28T08:18:22;20.90;99.90
55083;DHT22;40978;52.850;6.506;2023-07-28T08:20:48;21.00;99.90
55083;DHT22;40978;52.850;6.506;2023-07-28T08:23:14;21.00;99.90
55083;DHT22;40978;52.850;6.506;2023-07-28T08:25:40;21.00;99.90
55083;DHT22;40978;52.850;6.506;2023-07-28T08:28:05;21.10;99.90
55083;DHT22;40978;52.850;6.506;2023-07-28T08:30:32;21.20;99.90
55083;DHT22;40978;52.850;6.506;2023-07-28T08:32:58;21.40;99.90
55083;DHT22;40978;52.850;6.506;2023-07-28T08:35:23;21.60;99.90
55083;DHT22;40978;52.850;6.506;2023-07-28T08:37:49;21.70;99.90
55083;DHT22;40978;52.850;6.506;2023-07-28T08:40:16;21.70;99.90
55083;DHT22;40978;52.850;6.506;2023-07-28T08:42:44;21.70;99.90
55083;DHT22;40978;52.850;6.506;2023-07-28T08:45:10;21.70;99.90
55083;DHT22;40978;52.850;6.506;2023-07-28T08:47:37;21.70;99.90
55083;DHT22;40978;52.850;6.506;2023-07-28T08:50:03;21.70;99.90
55083;DHT22;40978;52.850;6.506;2023-07-28T08:52:29;22.00;99.90
55083;DHT22;40978;52.850;6.506;2023-07-28T08:54:55;22.20;99.90
55083;DHT22;40978;52.850;6.506;2023-07-28T08:57:20;22.40;99.90
55083;DHT22;40978;52.850;6.506;2023-07-28T08:59:46;22.40;99.90
55083;DHT22;40978;52.850;6.506;2023-07-28T09:02:17;22.40;99.90
55083;DHT22;40978;52.850;6.506;2023-07-28T09:04:44;22.50;99.90
55083;DHT22;40978;52.850;6.506;2023-07-28T09:07:10;22.80;99.90
55083;DHT22;40978;52.850;6.506;2023-07-28T09:09:36;23.10;99.90
55083;DHT22;40978;52.850;6.506;2023-07-28T09:12:06;23.30;99.90
55083;DHT22;40978;52.850;6.506;2023-07-28T09:14:35;23.20;99.90
55083;DHT22;40978;52.850;6.506;2023-07-28T09:17:18;23.10;99.90
55083;DHT22;40978;52.850;6.506;2023-07-28T09:19:55;22.90;99.90
55083;DHT22;40978;52.850;6.506;2023-07-28T09:22:22;22.90;99.90
55083;DHT22;40978;52.850;6.506;2023-07-28T09:24:49;23.20;99.90
55083;DHT22;40978;52.850;6.506;2023-07-28T09:27:24;23.40;99.90
55083;DHT22;40978;52.850;6.506;2023-07-28T09:29:51;23.50;99.90
55083;DHT22;40978;52.850;6.506;2023-07-28T09:32:28;23.50;99.90
55083;DHT22;40978;52.850;6.506;2023-07-28T09:35:10;23.40;99.90
55083;DHT22;40978;52.850;6.506;2023-07-28T09:37:50;23.30;99.90
55083;DHT22;40978;52.850;6.506;2023-07-28T09:40:21;23.20;99.90
55083;DHT22;40978;52.850;6.506;2023-07-28T09:42:52;23.20;99.90
55083;DHT22;40978;52.850;6.506;2023-07-28T09:45:20;23.00;99.90
55083;DHT22;40978;52.850;6.506;2023-07-28T09:47:48;22.90;99.90
55083;DHT22;40978;52.850;6.506;2023-07-28T09:50:18;22.70;99.90
55083;DHT22;40978;52.850;6.506;2023-07-28T09:52:52;22.50;99.90
55083;DHT22;40978;52.850;6.506;2023-07-28T09:55:20;22.50;99.90
55083;DHT22;40978;52.850;6.506;2023-07-28T09:57:50;22.50;99.90
55083;DHT22;40978;52.850;6.506;2023-07-28T10:00:17;22.60;99.90
55083;DHT22;40978;52.850;6.506;2023-07-28T10:02:44;22.90;99.90
55083;DHT22;40978;52.850;6.506;2023-07-28T10:05:11;23.30;99.90
55083;DHT22;40978;52.850;6.506;2023-07-28T10:07:39;23.60;99.90
55083;DHT22;40978;52.850;6.506;2023-07-28T10:10:07;23.60;99.90
55083;DHT22;40978;52.850;6.506;2023-07-28T10:12:51;23.80;99.90
55083;DHT22;40978;52.850;6.506;2023-07-28T10:15:19;24.10;99.90
55083;DHT22;40978;52.850;6.506;2023-07-28T10:17:49;24.40;99.90
55083;DHT22;40978;52.850;6.506;2023-07-28T10:20:51;24.70;99.90
55083;DHT22;40978;52.850;6.506;2023-07-28T10:23:21;25.00;99.90
55083;DHT22;40978;52.850;6.506;2023-07-28T10:26:00;25.30;99.90
55083;DHT22;40978;52.850;6.506;2023-07-28T10:28:34;25.40;99.90
55083;DHT22;40978;52.850;6.506;2023-07-28T10:31:05;25.20;99.90
55083;DHT22;40978;52.850;6.506;2023-07-28T10:33:45;25.10;99.90
55083;DHT22;40978;52.850;6.506;2023-07-28T10:41:26;25.50;99.90
55083;DHT22;40978;52.850;6.506;2023-07-28T10:43:52;25.30;99.90
55083;DHT22;40978;52.850;6.506;2023-07-28T10:46:20;25.30;99.90
55083;DHT22;40978;52.850;6.506;2023-07-28T10:48:49;25.40;99.90
55083;DHT22;40978;52.850;6.506;2023-07-28T10:51:25;25.20;99.90
55083;DHT22;40978;52.850;6.506;2023-07-28T10:53:57;25.20;99.90
55083;DHT22;40978;52.850;6.506;2023-07-28T10:56:23;25.40;99.90
55083;DHT22;40978;52.850;6.506;2023-07-28T10:59:03;25.60;99.90
55083;DHT22;40978;52.850;6.506;2023-07-28T11:01:39;25.80;99.90
55083;DHT22;40978;52.850;6.506;2023-07-28T11:04:19;25.90;99.90
55083;DHT22;40978;52.850;6.506;2023-07-28T11:06:49;25.80;99.90
55083;DHT22;40978;52.850;6.506;2023-07-28T11:09:17;25.60;99.90
55083;DHT22;40978;52.850;6.506;2023-07-28T11:11:44;25.40;99.90
55083;DHT22;40978;52.850;6.506;2023-07-28T11:14:11;25.30;99.90
55083;DHT22;40978;52.850;6.506;2023-07-28T11:16:40;25.30;99.90
55083;DHT22;40978;52.850;6.506;2023-07-28T11:19:11;25.60;99.90
55083;DHT22;40978;52.850;6.506;2023-07-28T11:21:41;25.80;99.90
55083;DHT22;40978;52.850;6.506;2023-07-28T11:24:11;25.90;99.90
55083;DHT22;40978;52.850;6.506;2023-07-28T11:26:38;26.10;99.90
55083;DHT22;40978;52.850;6.506;2023-07-28T11:29:05;26.00;99.90
55083;DHT22;40978;52.850;6.506;2023-07-28T11:31:31;25.80;99.90
55083;DHT22;40978;52.850;6.506;2023-07-28T11:33:59;25.70;99.90
55083;DHT22;40978;52.850;6.506;2023-07-28T11:36:26;25.50;99.90
55083;DHT22;40978;52.850;6.506;2023-07-28T11:38:54;25.10;99.90
55083;DHT22;40978;52.850;6.506;2023-07-28T11:41:20;24.70;99.90
55083;DHT22;40978;52.850;6.506;2023-07-28T11:43:50;24.20;99.90
55083;DHT22;40978;52.850;6.506;2023-07-28T11:46:37;23.80;99.90
55083;DHT22;40978;52.850;6.506;2023-07-28T11:51:40;24.30;99.90
55083;DHT22;40978;52.850;6.506;2023-07-28T11:54:17;24.60;99.90
55083;DHT22;40978;52.850;6.506;2023-07-28T11:56:46;24.80;99.90
55083;DHT22;40978;52.850;6.506;2023-07-28T11:59:21;24.90;99.90
55083;DHT22;40978;52.850;6.506;2023-07-28T12:04:28;24.90;99.90
55083;DHT22;40978;52.850;6.506;2023-07-28T12:07:11;25.10;99.90
55083;DHT22;40978;52.850;6.506;2023-07-28T12:12:30;26.00;99.90
55083;DHT22;40978;52.850;6.506;2023-07-28T12:14:57;26.20;99.90
55083;DHT22;40978;52.850;6.506;2023-07-28T12:17:30;26.10;99.90
55083;DHT22;40978;52.850;6.506;2023-07-28T12:20:03;26.10;99.90
55083;DHT22;40978;52.850;6.506;2023-07-28T12:22:37;26.50;99.90
55083;DHT22;40978;52.850;6.506;2023-07-28T12:25:04;26.70;99.90
55083;DHT22;40978;52.850;6.506;2023-07-28T12:27:31;26.60;99.90
55083;DHT22;40978;52.850;6.506;2023-07-28T12:29:56;26.10;99.90
55083;DHT22;40978;52.850;6.506;2023-07-28T12:32:22;25.60;99.90
55083;DHT22;40978;52.850;6.506;2023-07-28T12:34:49;25.10;99.90
55083;DHT22;40978;52.850;6.506;2023-07-28T12:37:16;24.80;99.90
55083;DHT22;40978;52.850;6.506;2023-07-28T12:39:42;24.60;99.90
55083;DHT22;40978;52.850;6.506;2023-07-28T12:42:11;24.40;99.90
55083;DHT22;40978;52.850;6.506;2023-07-28T12:44:38;24.40;99.90
55083;DHT22;40978;52.850;6.506;2023-07-28T12:47:04;24.60;99.90
55083;DHT22;40978;52.850;6.506;2023-07-28T12:49:30;25.00;99.90
55083;DHT22;40978;52.850;6.506;2023-07-28T12:51:58;25.50;99.90
55083;DHT22;40978;52.850;6.506;2023-07-28T12:54:25;25.80;99.90
55083;DHT22;40978;52.850;6.506;2023-07-28T12:56:51;26.10;99.90
55083;DHT22;40978;52.850;6.506;2023-07-28T12:59:17;26.10;99.90
55083;DHT22;40978;52.850;6.506;2023-07-28T13:01:46;25.90;99.90
55083;DHT22;40978;52.850;6.506;2023-07-28T13:04:12;25.90;99.90
55083;DHT22;40978;52.850;6.506;2023-07-28T13:06:41;26.20;99.90
55083;DHT22;40978;52.850;6.506;2023-07-28T13:09:07;26.50;99.90
55083;DHT22;40978;52.850;6.506;2023-07-28T13:11:35;26.70;99.90
55083;DHT22;40978;52.850;6.506;2023-07-28T13:14:02;26.60;99.90
55083;DHT22;40978;52.850;6.506;2023-07-28T13:16:28;26.30;99.90
55083;DHT22;40978;52.850;6.506;2023-07-28T13:18:53;26.20;99.90
55083;DHT22;40978;52.850;6.506;2023-07-28T13:21:19;26.10;99.90
55083;DHT22;40978;52.850;6.506;2023-07-28T13:23:46;25.90;99.90
55083;DHT22;40978;52.850;6.506;2023-07-28T13:26:11;26.00;99.90
55083;DHT22;40978;52.850;6.506;2023-07-28T13:28:45;26.10;99.90
55083;DHT22;40978;52.850;6.506;2023-07-28T13:31:14;26.30;99.90
55083;DHT22;40978;52.850;6.506;2023-07-28T13:33:40;26.40;99.90
55083;DHT22;40978;52.850;6.506;2023-07-28T13:36:08;26.50;99.90
55083;DHT22;40978;52.850;6.506;2023-07-28T13:38:35;26.60;99.90
55083;DHT22;40978;52.850;6.506;2023-07-28T13:41:03;26.60;99.90
55083;DHT22;40978;52.850;6.506;2023-07-28T13:43:29;26.50;99.90
55083;DHT22;40978;52.850;6.506;2023-07-28T13:45:55;26.50;99.90
55083;DHT22;40978;52.850;6.506;2023-07-28T13:48:21;26.50;99.90
55083;DHT22;40978;52.850;6.506;2023-07-28T13:50:47;26.50;99.90
55083;DHT22;40978;52.850;6.506;2023-07-28T13:53:12;26.50;99.90
55083;DHT22;40978;52.850;6.506;2023-07-28T13:55:38;26.50;99.90
55083;DHT22;40978;52.850;6.506;2023-07-28T13:58:04;26.20;99.90
55083;DHT22;40978;52.850;6.506;2023-07-28T14:00:33;26.00;99.90
55083;DHT22;40978;52.850;6.506;2023-07-28T14:02:58;25.80;99.90
55083;DHT22;40978;52.850;6.506;2023-07-28T14:05:24;25.90;99.90
55083;DHT22;40978;52.850;6.506;2023-07-28T14:07:50;26.00;99.90
55083;DHT22;40978;52.850;6.506;2023-07-28T14:10:16;26.00;99.90
55083;DHT22;40978;52.850;6.506;2023-07-28T14:12:41;25.90;99.90
55083;DHT22;40978;52.850;6.506;2023-07-28T14:15:10;26.10;99.90
55083;DHT22;40978;52.850;6.506;2023-07-28T14:17:36;26.10;99.90
55083;DHT22;40978;52.850;6.506;2023-07-28T14:20:02;26.20;99.90
55083;DHT22;40978;52.850;6.506;2023-07-28T14:22:27;26.30;99.90
55083;DHT22;40978;52.850;6.506;2023-07-28T14:24:53;26.30;99.90
55083;DHT22;40978;52.850;6.506;2023-07-28T14:27:19;26.40;99.90
55083;DHT22;40978;52.850;6.506;2023-07-28T14:29:45;26.50;99.90
55083;DHT22;40978;52.850;6.506;2023-07-28T14:32:10;26.50;99.90
55083;DHT22;40978;52.850;6.506;2023-07-28T14:34:36;26.50;99.90
55083;DHT22;40978;52.850;6.506;2023-07-28T14:37:04;26.50;99.90
55083;DHT22;40978;52.850;6.506;2023-07-28T14:39:33;26.50;99.90
55083;DHT22;40978;52.850;6.506;2023-07-28T14:41:59;26.50;99.90
55083;DHT22;40978;52.850;6.506;2023-07-28T14:44:28;26.50;99.90
55083;DHT22;40978;52.850;6.506;2023-07-28T14:46:55;26.50;99.90
55083;DHT22;40978;52.850;6.506;2023-07-28T14:49:23;26.30;99.90
55083;DHT22;40978;52.850;6.506;2023-07-28T14:51:49;26.20;99.90
55083;DHT22;40978;52.850;6.506;2023-07-28T14:54:14;26.10;99.90
55083;DHT22;40978;52.850;6.506;2023-07-28T14:56:40;26.10;99.90
55083;DHT22;40978;52.850;6.506;2023-07-28T14:59:06;26.00;99.90
55083;DHT22;40978;52.850;6.506;2023-07-28T15:01:32;25.80;99.90
55083;DHT22;40978;52.850;6.506;2023-07-28T15:03:58;25.60;99.90
55083;DHT22;40978;52.850;6.506;2023-07-28T15:06:27;25.40;99.90
55083;DHT22;40978;52.850;6.506;2023-07-28T15:08:53;25.20;99.90
55083;DHT22;40978;52.850;6.506;2023-07-28T15:11:21;25.00;99.90
55083;DHT22;40978;52.850;6.506;2023-07-28T15:13:47;25.00;99.90
55083;DHT22;40978;52.850;6.506;2023-07-28T15:16:13;24.90;99.90
55083;DHT22;40978;52.850;6.506;2023-07-28T15:18:38;24.90;99.90
55083;DHT22;40978;52.850;6.506;2023-07-28T15:21:04;25.00;99.90
55083;DHT22;40978;52.850;6.506;2023-07-28T15:23:30;24.90;99.90
55083;DHT22;40978;52.850;6.506;2023-07-28T15:25:56;24.90;99.90
55083;DHT22;40978;52.850;6.506;2023-07-28T15:28:25;25.10;99.90
55083;DHT22;40978;52.850;6.506;2023-07-28T15:30:51;25.00;99.90
55083;DHT22;40978;52.850;6.506;2023-07-28T15:33:18;25.10;99.90
55083;DHT22;40978;52.850;6.506;2023-07-28T15:35:47;25.10;99.90
55083;DHT22;40978;52.850;6.506;2023-07-28T15:38:14;25.00;99.90
55083;DHT22;40978;52.850;6.506;2023-07-28T15:40:40;25.10;99.90
55083;DHT22;40978;52.850;6.506;2023-07-28T15:43:06;25.00;99.90
55083;DHT22;40978;52.850;6.506;2023-07-28T15:45:31;25.00;99.90